This is the latest recevied weather packets stored in our database for station/object KD4MBW. If no packets are shown the sender has not sent any weather packets the latest 10 day(s).
| Time | Temp. | Humidity | Pressure | Rain* | Wind** | Luminosity | Snow |
|---|---|---|---|---|---|---|---|
| 1787516331 | 35° C | 59% | 1013.7 hPa | 0 mm | - | 552 W/m² | - |
| 1787516026 | 35° C | 59% | 1013.7 hPa | 0 mm | - | 548 W/m² | - |
| 1787515722 | 35° C | 60% | 1014 hPa | 0 mm | - | 575 W/m² | - |
| 1787515417 | 35° C | 59% | 1014.2 hPa | 0 mm | - | 600 W/m² | - |
| 1787515116 | 35.56° C | 61% | 1014 hPa | 0 mm | - | 415 W/m² | - |
| 1787514814 | 35° C | 55% | 1014.1 hPa | 0 mm | - | 603 W/m² | - |
| 1787514509 | 36.11° C | 50% | 1014.3 hPa | 0 mm | - | 644 W/m² | - |
| 1787514205 | 36.11° C | 52% | 1014.3 hPa | 0 mm | - | 654 W/m² | - |
| 1787513904 | 36.11° C | 53% | 1014.3 hPa | 0 mm | - | 653 W/m² | - |
| 1787513600 | 35.56° C | 52% | 1014.4 hPa | 0 mm | - | 660 W/m² | - |
| 1787513296 | 35.56° C | 54% | 1014.4 hPa | 0 mm | - | 672 W/m² | - |
| 1787512992 | 35.56° C | 55% | 1014.6 hPa | 0 mm | - | 671 W/m² | - |
| 1787512688 | 35° C | 55% | 1014.6 hPa | 0 mm | - | 688 W/m² | - |
| 1787512383 | 35.56° C | 53% | 1014.6 hPa | 0 mm | - | 687 W/m² | - |
| 1787512078 | 35° C | 54% | 1014.7 hPa | 0 mm | - | 702 W/m² | - |
| 1787511774 | 35.56° C | 55% | 1014.6 hPa | 0 mm | - | 709 W/m² | - |
| 1787511473 | 35.56° C | 55% | 1014.7 hPa | 0 mm | - | 748 W/m² | - |
| 1787511167 | 35.56° C | 54% | 1014.7 hPa | 0 mm | - | 768 W/m² | - |
| 1787510861 | 35.56° C | 55% | 1014.9 hPa | 0 mm | - | 713 W/m² | - |
| 1787510556 | 35.56° C | 55% | 1014.8 hPa | 0 mm | - | 644 W/m² | - |
| 1787510252 | 35° C | 54% | 1014.9 hPa | 0 mm | - | 685 W/m² | - |
| 1787509948 | 35.56° C | 58% | 1015.2 hPa | 0 mm | - | 771 W/m² | - |
| 1787509643 | 35° C | 58% | 1015 hPa | 0 mm | - | 746 W/m² | - |
| 1787509340 | 34.44° C | 58% | 1015.2 hPa | 0 mm | - | 798 W/m² | - |
| 1787509039 | 35° C | 55% | 1015.2 hPa | 0 mm | - | 809 W/m² | - |
* Rain latest hour (hover to see other rain measurements)
** Current wind speed in m/s (hover to see current wind gust speed)